createdAt,value
2022-11-04T00:05:01.166Z,17.20
2022-11-04T00:15:20.928Z,17.50
2022-11-04T00:25:43.952Z,18.00
2022-11-04T00:35:50.951Z,18.10
2022-11-04T00:45:55.920Z,17.90
2022-11-04T00:56:01.035Z,18.10
2022-11-04T01:06:07.159Z,17.80
2022-11-04T01:16:13.078Z,17.30
2022-11-04T01:26:20.688Z,17.20
2022-11-04T01:36:25.600Z,16.70
2022-11-04T01:46:38.846Z,16.70
2022-11-04T01:56:45.122Z,16.50
2022-11-04T02:06:53.820Z,16.50
2022-11-04T02:17:06.003Z,15.50
2022-11-04T02:27:27.401Z,14.60
2022-11-04T02:37:40.397Z,14.70
2022-11-04T02:47:46.765Z,14.20
2022-11-04T02:57:54.156Z,14.20
2022-11-04T03:08:02.103Z,14.60
2022-11-04T03:18:19.688Z,14.20
2022-11-04T03:28:35.042Z,13.70
2022-11-04T03:38:42.749Z,13.60
2022-11-04T03:48:47.565Z,13.60
2022-11-04T03:59:04.541Z,13.50
2022-11-04T04:09:14.655Z,13.80
2022-11-04T04:19:24.126Z,14.00
2022-11-04T04:29:31.010Z,14.30
2022-11-04T04:39:56.960Z,14.00
2022-11-04T04:50:01.915Z,13.10
2022-11-04T05:00:14.006Z,14.00
2022-11-04T05:10:18.813Z,13.90
2022-11-04T05:20:24.148Z,13.60
2022-11-04T05:30:27.905Z,13.40
2022-11-04T05:40:32.932Z,12.90
2022-11-04T05:50:36.400Z,13.00
2022-11-04T06:00:41.348Z,12.70
2022-11-04T06:10:45.132Z,12.40
2022-11-04T06:20:50.104Z,12.00
2022-11-04T06:30:53.765Z,12.30
2022-11-04T06:40:59.029Z,12.20
2022-11-04T06:51:03.001Z,11.80
2022-11-04T07:01:14.617Z,12.50
2022-11-04T07:11:22.122Z,13.10
2022-11-04T07:21:27.519Z,13.20
2022-11-04T07:31:31.091Z,13.50
2022-11-04T07:41:36.354Z,13.50
2022-11-04T07:51:40.031Z,13.90
2022-11-04T08:01:45.388Z,13.90
2022-11-04T08:11:49.018Z,14.00
2022-11-04T08:21:54.025Z,14.20
2022-11-04T08:31:57.717Z,14.20
2022-11-04T08:42:02.764Z,14.70
2022-11-04T08:52:07.887Z,14.70
2022-11-04T09:02:16.287Z,14.80
2022-11-04T09:12:20.718Z,15.10
2022-11-04T09:22:25.635Z,15.40
2022-11-04T09:32:29.423Z,15.80
2022-11-04T09:42:45.292Z,16.40
2022-11-04T09:52:55.184Z,16.10
2022-11-04T10:03:11.325Z,16.70
2022-11-04T10:13:26.813Z,17.00
2022-11-04T10:23:35.841Z,17.50
2022-11-04T10:33:42.289Z,18.00
2022-11-04T10:43:50.435Z,18.40
2022-11-04T10:53:57.334Z,19.30
2022-11-04T11:04:07.299Z,19.90
2022-11-04T11:14:32.177Z,20.20
2022-11-04T11:24:38.066Z,20.50
2022-11-04T11:34:46.001Z,20.10
2022-11-04T11:44:54.568Z,20.30
2022-11-04T11:55:07.643Z,20.60
2022-11-04T12:15:59.020Z,20.80
2022-11-04T12:26:14.826Z,21.00
2022-11-04T12:36:43.955Z,21.50
2022-11-04T12:46:58.348Z,21.90
2022-11-04T12:57:14.404Z,21.50
2022-11-04T13:07:26.124Z,21.40
2022-11-04T13:17:34.919Z,21.40
2022-11-04T13:27:45.132Z,22.00
2022-11-04T13:37:57.121Z,22.80
2022-11-04T13:48:02.203Z,22.70
2022-11-04T13:58:08.133Z,23.80
2022-11-04T14:08:14.877Z,24.90
2022-11-04T14:18:30.775Z,25.60
2022-11-04T14:28:36.316Z,24.70
2022-11-04T14:38:40.229Z,24.30
2022-11-04T14:48:52.301Z,25.10
2022-11-04T14:59:00.479Z,24.30
2022-11-04T15:09:05.516Z,24.20
2022-11-04T15:19:11.275Z,22.00
2022-11-04T15:29:18.223Z,21.60
2022-11-04T15:39:23.881Z,21.30
2022-11-04T15:49:30.373Z,21.10
2022-11-04T15:59:36.697Z,20.10
2022-11-04T16:09:52.247Z,19.80
2022-11-04T16:19:59.022Z,19.40
2022-11-04T16:30:12.250Z,19.20
2022-11-04T16:40:16.187Z,18.90
2022-11-04T16:50:21.464Z,18.60
2022-11-04T17:00:27.443Z,18.40
2022-11-04T17:10:33.441Z,18.10
2022-11-04T17:20:37.194Z,18.10
2022-11-04T17:30:42.452Z,17.90
2022-11-04T17:41:09.172Z,17.80
2022-11-04T17:51:14.215Z,17.80
2022-11-04T18:01:20.676Z,17.50
2022-11-04T18:11:44.679Z,17.40
2022-11-04T18:21:49.300Z,17.40
2022-11-04T18:31:54.301Z,17.20
2022-11-04T18:41:57.900Z,17.20
2022-11-04T18:52:03.009Z,17.10
2022-11-04T19:02:07.071Z,17.10
2022-11-04T19:12:29.875Z,17.10
2022-11-04T19:22:33.761Z,17.00
2022-11-04T19:32:38.796Z,16.90
2022-11-04T19:43:02.436Z,16.80
2022-11-04T19:53:07.444Z,16.70
2022-11-04T20:03:11.006Z,16.60
2022-11-04T20:13:36.586Z,16.50
2022-11-04T20:23:40.474Z,16.60
2022-11-04T20:33:46.230Z,16.50
2022-11-04T20:43:50.588Z,16.50
2022-11-04T20:54:00.759Z,16.20
2022-11-04T21:04:06.777Z,15.90
2022-11-04T21:14:14.497Z,16.10
2022-11-04T21:24:18.491Z,15.50
2022-11-04T21:34:23.589Z,15.20
2022-11-04T21:44:27.627Z,15.00
2022-11-04T21:54:32.860Z,14.80
2022-11-04T22:04:36.484Z,14.60
2022-11-04T22:14:41.492Z,14.30
2022-11-04T22:25:03.148Z,14.00
2022-11-04T22:35:09.131Z,13.80
2022-11-04T22:45:16.679Z,13.80
2022-11-04T22:55:22.023Z,13.70
2022-11-04T23:05:28.537Z,13.60
2022-11-04T23:15:51.164Z,13.60
2022-11-04T23:25:54.773Z,13.60
2022-11-04T23:36:29.050Z,13.50
2022-11-04T23:46:50.488Z,13.50
2022-11-04T23:57:12.861Z,13.50
